sensor_id;sensor_type;location;lat;lon;timestamp;P1;durP1;ratioP1;P2;durP2;ratioP2
71238;SDS011;61342;51.442;7.370;2022-12-04T00:00:13;36.90;;;21.77;;
71238;SDS011;61342;51.442;7.370;2022-12-04T00:04:42;35.83;;;22.08;;
71238;SDS011;61342;51.442;7.370;2022-12-04T00:06:00;37.72;;;22.23;;
71238;SDS011;61342;51.442;7.370;2022-12-04T00:07:20;39.78;;;22.63;;
71238;SDS011;61342;51.442;7.370;2022-12-04T00:08:39;36.67;;;20.83;;
71238;SDS011;61342;51.442;7.370;2022-12-04T00:11:33;38.53;;;21.75;;
71238;SDS011;61342;51.442;7.370;2022-12-04T00:14:12;39.50;;;21.48;;
71238;SDS011;61342;51.442;7.370;2022-12-04T00:15:27;38.63;;;21.23;;
71238;SDS011;61342;51.442;7.370;2022-12-04T00:16:36;38.53;;;21.55;;
71238;SDS011;61342;51.442;7.370;2022-12-04T00:17:58;39.72;;;21.73;;
71238;SDS011;61342;51.442;7.370;2022-12-04T00:19:26;36.13;;;20.63;;
71238;SDS011;61342;51.442;7.370;2022-12-04T00:20:35;34.20;;;19.85;;
71238;SDS011;61342;51.442;7.370;2022-12-04T00:21:45;36.22;;;20.45;;
71238;SDS011;61342;51.442;7.370;2022-12-04T00:29:28;39.72;;;21.58;;
71238;SDS011;61342;51.442;7.370;2022-12-04T00:30:32;39.80;;;20.50;;
71238;SDS011;61342;51.442;7.370;2022-12-04T00:31:40;43.05;;;22.10;;
71238;SDS011;61342;51.442;7.370;2022-12-04T00:36:08;40.13;;;20.85;;
71238;SDS011;61342;51.442;7.370;2022-12-04T00:37:19;41.72;;;22.88;;
71238;SDS011;61342;51.442;7.370;2022-12-04T00:38:25;42.22;;;22.60;;
71238;SDS011;61342;51.442;7.370;2022-12-04T00:40:07;36.30;;;20.90;;
71238;SDS011;61342;51.442;7.370;2022-12-04T00:41:34;35.33;;;21.33;;
71238;SDS011;61342;51.442;7.370;2022-12-04T00:43:08;38.08;;;21.80;;
71238;SDS011;61342;51.442;7.370;2022-12-04T00:45:50;39.85;;;21.08;;
71238;SDS011;61342;51.442;7.370;2022-12-04T00:47:04;35.63;;;20.77;;
71238;SDS011;61342;51.442;7.370;2022-12-04T00:48:18;34.28;;;20.23;;
71238;SDS011;61342;51.442;7.370;2022-12-04T00:49:44;36.40;;;21.08;;
71238;SDS011;61342;51.442;7.370;2022-12-04T00:50:52;39.58;;;22.65;;
71238;SDS011;61342;51.442;7.370;2022-12-04T00:52:00;36.50;;;21.95;;
71238;SDS011;61342;51.442;7.370;2022-12-04T00:54:38;34.05;;;20.65;;
71238;SDS011;61342;51.442;7.370;2022-12-04T00:56:01;37.72;;;20.90;;
71238;SDS011;61342;51.442;7.370;2022-12-04T00:57:09;37.58;;;20.65;;
71238;SDS011;61342;51.442;7.370;2022-12-04T00:58:30;32.60;;;19.45;;
71238;SDS011;61342;51.442;7.370;2022-12-04T01:02:37;37.17;;;20.10;;
71238;SDS011;61342;51.442;7.370;2022-12-04T01:04:00;35.60;;;20.50;;
71238;SDS011;61342;51.442;7.370;2022-12-04T01:05:06;35.28;;;21.33;;
71238;SDS011;61342;51.442;7.370;2022-12-04T01:06:48;33.65;;;19.65;;
71238;SDS011;61342;51.442;7.370;2022-12-04T01:07:54;35.50;;;21.30;;
71238;SDS011;61342;51.442;7.370;2022-12-04T01:09:31;42.08;;;22.67;;
71238;SDS011;61342;51.442;7.370;2022-12-04T01:10:41;35.85;;;20.75;;
71238;SDS011;61342;51.442;7.370;2022-12-04T01:11:45;37.40;;;21.88;;
71238;SDS011;61342;51.442;7.370;2022-12-04T01:12:47;37.30;;;21.60;;
71238;SDS011;61342;51.442;7.370;2022-12-04T01:13:57;36.88;;;20.85;;
71238;SDS011;61342;51.442;7.370;2022-12-04T01:15:16;38.97;;;20.98;;
71238;SDS011;61342;51.442;7.370;2022-12-04T01:16:21;36.53;;;21.50;;
71238;SDS011;61342;51.442;7.370;2022-12-04T01:17:52;33.58;;;20.38;;
71238;SDS011;61342;51.442;7.370;2022-12-04T01:19:07;36.90;;;20.70;;
71238;SDS011;61342;51.442;7.370;2022-12-04T01:20:13;35.03;;;21.13;;
71238;SDS011;61342;51.442;7.370;2022-12-04T01:24:55;35.80;;;18.98;;
71238;SDS011;61342;51.442;7.370;2022-12-04T01:28:20;33.30;;;18.38;;
71238;SDS011;61342;51.442;7.370;2022-12-04T01:29:34;34.78;;;19.77;;
71238;SDS011;61342;51.442;7.370;2022-12-04T01:30:35;32.65;;;19.55;;
71238;SDS011;61342;51.442;7.370;2022-12-04T01:32:13;31.45;;;18.80;;
71238;SDS011;61342;51.442;7.370;2022-12-04T01:33:24;31.70;;;19.40;;
71238;SDS011;61342;51.442;7.370;2022-12-04T01:34:28;29.67;;;18.77;;
71238;SDS011;61342;51.442;7.370;2022-12-04T01:36:02;35.10;;;20.27;;
71238;SDS011;61342;51.442;7.370;2022-12-04T01:37:11;33.13;;;19.20;;
71238;SDS011;61342;51.442;7.370;2022-12-04T01:38:30;34.97;;;20.10;;
71238;SDS011;61342;51.442;7.370;2022-12-04T01:40:13;30.15;;;18.33;;
71238;SDS011;61342;51.442;7.370;2022-12-04T01:41:24;36.28;;;20.65;;
71238;SDS011;61342;51.442;7.370;2022-12-04T01:46:33;33.67;;;19.80;;
71238;SDS011;61342;51.442;7.370;2022-12-04T01:48:04;33.63;;;18.98;;
71238;SDS011;61342;51.442;7.370;2022-12-04T01:49:23;33.22;;;20.17;;
71238;SDS011;61342;51.442;7.370;2022-12-04T01:51:07;34.67;;;19.10;;
71238;SDS011;61342;51.442;7.370;2022-12-04T01:53:15;33.38;;;20.45;;
71238;SDS011;61342;51.442;7.370;2022-12-04T01:54:33;34.35;;;20.25;;
71238;SDS011;61342;51.442;7.370;2022-12-04T01:55:43;31.77;;;19.48;;
71238;SDS011;61342;51.442;7.370;2022-12-04T01:58:30;30.58;;;19.48;;
71238;SDS011;61342;51.442;7.370;2022-12-04T02:00:07;33.88;;;19.98;;
71238;SDS011;61342;51.442;7.370;2022-12-04T02:01:33;32.88;;;19.73;;
71238;SDS011;61342;51.442;7.370;2022-12-04T02:04:16;33.78;;;20.02;;
71238;SDS011;61342;51.442;7.370;2022-12-04T02:05:17;33.63;;;20.02;;
71238;SDS011;61342;51.442;7.370;2022-12-04T02:21:06;30.20;;;18.10;;
71238;SDS011;61342;51.442;7.370;2022-12-04T02:22:38;32.33;;;17.92;;
71238;SDS011;61342;51.442;7.370;2022-12-04T02:24:16;33.85;;;19.08;;
71238;SDS011;61342;51.442;7.370;2022-12-04T02:26:04;32.70;;;18.25;;
71238;SDS011;61342;51.442;7.370;2022-12-04T02:27:01;31.02;;;17.17;;
71238;SDS011;61342;51.442;7.370;2022-12-04T02:30:25;29.10;;;17.73;;
71238;SDS011;61342;51.442;7.370;2022-12-04T02:31:36;29.65;;;18.85;;
71238;SDS011;61342;51.442;7.370;2022-12-04T02:32:44;29.02;;;18.73;;
71238;SDS011;61342;51.442;7.370;2022-12-04T02:34:10;28.90;;;17.73;;
71238;SDS011;61342;51.442;7.370;2022-12-04T02:36:23;27.48;;;17.98;;
71238;SDS011;61342;51.442;7.370;2022-12-04T02:37:35;29.17;;;18.00;;
71238;SDS011;61342;51.442;7.370;2022-12-04T02:40:22;26.65;;;16.77;;
71238;SDS011;61342;51.442;7.370;2022-12-04T02:41:33;29.80;;;17.00;;
71238;SDS011;61342;51.442;7.370;2022-12-04T02:42:39;28.20;;;17.25;;
71238;SDS011;61342;51.442;7.370;2022-12-04T02:45:13;28.55;;;17.27;;
71238;SDS011;61342;51.442;7.370;2022-12-04T02:46:30;28.38;;;17.60;;
71238;SDS011;61342;51.442;7.370;2022-12-04T02:47:35;26.40;;;17.23;;
71238;SDS011;61342;51.442;7.370;2022-12-04T02:48:40;30.88;;;18.30;;
71238;SDS011;61342;51.442;7.370;2022-12-04T02:49:49;27.83;;;16.92;;
71238;SDS011;61342;51.442;7.370;2022-12-04T02:50:54;29.23;;;17.20;;
71238;SDS011;61342;51.442;7.370;2022-12-04T02:51:58;29.73;;;16.67;;
71238;SDS011;61342;51.442;7.370;2022-12-04T02:53:02;28.80;;;17.45;;
71238;SDS011;61342;51.442;7.370;2022-12-04T02:54:08;27.52;;;17.80;;
71238;SDS011;61342;51.442;7.370;2022-12-04T02:55:20;26.92;;;17.33;;
71238;SDS011;61342;51.442;7.370;2022-12-04T02:56:25;25.80;;;17.02;;
71238;SDS011;61342;51.442;7.370;2022-12-04T02:57:30;26.27;;;16.77;;
71238;SDS011;61342;51.442;7.370;2022-12-04T02:58:41;30.42;;;17.45;;
71238;SDS011;61342;51.442;7.370;2022-12-04T02:59:48;29.67;;;18.60;;
71238;SDS011;61342;51.442;7.370;2022-12-04T03:03:02;29.02;;;16.88;;
71238;SDS011;61342;51.442;7.370;2022-12-04T03:06:08;24.75;;;15.65;;
71238;SDS011;61342;51.442;7.370;2022-12-04T03:07:44;26.98;;;16.48;;
71238;SDS011;61342;51.442;7.370;2022-12-04T03:10:56;26.08;;;15.32;;
71238;SDS011;61342;51.442;7.370;2022-12-04T03:12:18;28.70;;;15.90;;
71238;SDS011;61342;51.442;7.370;2022-12-04T03:13:44;28.20;;;16.80;;
71238;SDS011;61342;51.442;7.370;2022-12-04T03:15:00;26.33;;;15.93;;
71238;SDS011;61342;51.442;7.370;2022-12-04T03:18:08;27.88;;;15.35;;
71238;SDS011;61342;51.442;7.370;2022-12-04T03:19:50;27.75;;;14.85;;
71238;SDS011;61342;51.442;7.370;2022-12-04T03:21:11;24.98;;;15.68;;
71238;SDS011;61342;51.442;7.370;2022-12-04T03:24:30;27.40;;;15.63;;
71238;SDS011;61342;51.442;7.370;2022-12-04T03:25:36;26.73;;;15.35;;
71238;SDS011;61342;51.442;7.370;2022-12-04T03:33:57;28.77;;;16.63;;
71238;SDS011;61342;51.442;7.370;2022-12-04T03:37:18;29.98;;;15.75;;
71238;SDS011;61342;51.442;7.370;2022-12-04T03:47:06;26.23;;;14.95;;
71238;SDS011;61342;51.442;7.370;2022-12-04T03:50:24;27.08;;;15.63;;
71238;SDS011;61342;51.442;7.370;2022-12-04T03:52:29;25.65;;;14.82;;
71238;SDS011;61342;51.442;7.370;2022-12-04T03:54:04;27.35;;;14.68;;
71238;SDS011;61342;51.442;7.370;2022-12-04T03:57:20;25.95;;;14.68;;
71238;SDS011;61342;51.442;7.370;2022-12-04T03:59:08;25.88;;;15.02;;
71238;SDS011;61342;51.442;7.370;2022-12-04T04:00:28;24.00;;;14.93;;
71238;SDS011;61342;51.442;7.370;2022-12-04T04:01:49;23.80;;;14.27;;
71238;SDS011;61342;51.442;7.370;2022-12-04T04:03:00;24.08;;;15.30;;
71238;SDS011;61342;51.442;7.370;2022-12-04T04:04:27;24.30;;;15.55;;
71238;SDS011;61342;51.442;7.370;2022-12-04T04:05:50;24.17;;;16.02;;
71238;SDS011;61342;51.442;7.370;2022-12-04T04:08:47;29.63;;;15.57;;
71238;SDS011;61342;51.442;7.370;2022-12-04T04:10:04;26.75;;;14.80;;
71238;SDS011;61342;51.442;7.370;2022-12-04T04:12:55;24.52;;;15.18;;
71238;SDS011;61342;51.442;7.370;2022-12-04T04:16:07;26.92;;;15.68;;
71238;SDS011;61342;51.442;7.370;2022-12-04T04:17:40;22.23;;;14.25;;
71238;SDS011;61342;51.442;7.370;2022-12-04T04:19:14;25.10;;;14.48;;
71238;SDS011;61342;51.442;7.370;2022-12-04T04:20:50;24.90;;;14.77;;
71238;SDS011;61342;51.442;7.370;2022-12-04T04:26:32;27.88;;;14.57;;
71238;SDS011;61342;51.442;7.370;2022-12-04T04:27:50;23.30;;;14.30;;
71238;SDS011;61342;51.442;7.370;2022-12-04T04:29:08;24.83;;;15.55;;
71238;SDS011;61342;51.442;7.370;2022-12-04T04:33:05;25.02;;;14.23;;
71238;SDS011;61342;51.442;7.370;2022-12-04T04:34:47;27.35;;;15.85;;
71238;SDS011;61342;51.442;7.370;2022-12-04T04:43:45;25.65;;;13.95;;
71238;SDS011;61342;51.442;7.370;2022-12-04T04:46:59;24.83;;;14.68;;
71238;SDS011;61342;51.442;7.370;2022-12-04T04:48:24;25.63;;;15.40;;
71238;SDS011;61342;51.442;7.370;2022-12-04T04:50:30;25.67;;;14.77;;
71238;SDS011;61342;51.442;7.370;2022-12-04T04:52:01;26.63;;;15.18;;
71238;SDS011;61342;51.442;7.370;2022-12-04T04:55:07;23.35;;;14.18;;
71238;SDS011;61342;51.442;7.370;2022-12-04T04:56:21;25.08;;;14.68;;
71238;SDS011;61342;51.442;7.370;2022-12-04T04:59:17;25.00;;;14.65;;
71238;SDS011;61342;51.442;7.370;2022-12-04T05:00:37;26.27;;;16.10;;
71238;SDS011;61342;51.442;7.370;2022-12-04T05:01:38;26.17;;;15.75;;
71238;SDS011;61342;51.442;7.370;2022-12-04T05:02:42;24.48;;;16.10;;
71238;SDS011;61342;51.442;7.370;2022-12-04T05:04:03;24.85;;;16.27;;
71238;SDS011;61342;51.442;7.370;2022-12-04T05:05:08;25.30;;;15.55;;
71238;SDS011;61342;51.442;7.370;2022-12-04T05:06:11;26.75;;;16.50;;
71238;SDS011;61342;51.442;7.370;2022-12-04T05:07:29;24.45;;;15.90;;
71238;SDS011;61342;51.442;7.370;2022-12-04T05:08:32;23.80;;;15.60;;
71238;SDS011;61342;51.442;7.370;2022-12-04T05:09:49;25.83;;;16.30;;
71238;SDS011;61342;51.442;7.370;2022-12-04T05:10:58;25.75;;;16.20;;
71238;SDS011;61342;51.442;7.370;2022-12-04T05:12:05;26.20;;;16.13;;
71238;SDS011;61342;51.442;7.370;2022-12-04T05:13:11;25.05;;;16.13;;
71238;SDS011;61342;51.442;7.370;2022-12-04T05:14:41;25.00;;;15.52;;
71238;SDS011;61342;51.442;7.370;2022-12-04T05:16:13;25.05;;;15.93;;
71238;SDS011;61342;51.442;7.370;2022-12-04T05:17:28;25.60;;;15.85;;
71238;SDS011;61342;51.442;7.370;2022-12-04T05:18:38;24.90;;;15.68;;
71238;SDS011;61342;51.442;7.370;2022-12-04T05:20:00;22.80;;;14.98;;
71238;SDS011;61342;51.442;7.370;2022-12-04T05:21:06;25.48;;;16.35;;
71238;SDS011;61342;51.442;7.370;2022-12-04T05:23:43;24.20;;;14.80;;
71238;SDS011;61342;51.442;7.370;2022-12-04T05:26:19;24.05;;;14.77;;
71238;SDS011;61342;51.442;7.370;2022-12-04T05:27:29;24.67;;;15.52;;
71238;SDS011;61342;51.442;7.370;2022-12-04T05:28:49;26.70;;;15.63;;
71238;SDS011;61342;51.442;7.370;2022-12-04T05:30:19;26.13;;;15.02;;
71238;SDS011;61342;51.442;7.370;2022-12-04T05:31:40;24.98;;;15.13;;
71238;SDS011;61342;51.442;7.370;2022-12-04T05:32:48;22.58;;;13.82;;
71238;SDS011;61342;51.442;7.370;2022-12-04T05:36:20;22.65;;;13.20;;
71238;SDS011;61342;51.442;7.370;2022-12-04T05:37:36;24.38;;;14.02;;
71238;SDS011;61342;51.442;7.370;2022-12-04T05:38:53;22.55;;;13.85;;
71238;SDS011;61342;51.442;7.370;2022-12-04T05:42:20;21.55;;;14.60;;
71238;SDS011;61342;51.442;7.370;2022-12-04T05:43:23;21.20;;;13.27;;
71238;SDS011;61342;51.442;7.370;2022-12-04T05:44:51;21.52;;;13.02;;
71238;SDS011;61342;51.442;7.370;2022-12-04T05:45:51;18.00;;;12.27;;
71238;SDS011;61342;51.442;7.370;2022-12-04T05:48:52;18.75;;;11.93;;
71238;SDS011;61342;51.442;7.370;2022-12-04T05:50:18;16.77;;;12.38;;
71238;SDS011;61342;51.442;7.370;2022-12-04T05:53:05;19.17;;;11.70;;
71238;SDS011;61342;51.442;7.370;2022-12-04T05:54:06;16.60;;;11.27;;
71238;SDS011;61342;51.442;7.370;2022-12-04T05:58:29;16.50;;;11.43;;
71238;SDS011;61342;51.442;7.370;2022-12-04T05:59:48;15.15;;;10.73;;
71238;SDS011;61342;51.442;7.370;2022-12-04T06:01:06;15.30;;;11.05;;
71238;SDS011;61342;51.442;7.370;2022-12-04T06:12:29;18.02;;;11.50;;
71238;SDS011;61342;51.442;7.370;2022-12-04T06:23:29;16.58;;;11.35;;
71238;SDS011;61342;51.442;7.370;2022-12-04T06:24:37;17.73;;;11.35;;
71238;SDS011;61342;51.442;7.370;2022-12-04T06:25:46;18.77;;;11.38;;
71238;SDS011;61342;51.442;7.370;2022-12-04T06:26:47;18.23;;;11.77;;
71238;SDS011;61342;51.442;7.370;2022-12-04T06:28:03;15.75;;;11.23;;
71238;SDS011;61342;51.442;7.370;2022-12-04T06:32:57;19.10;;;12.30;;
71238;SDS011;61342;51.442;7.370;2022-12-04T06:35:56;17.25;;;11.85;;
71238;SDS011;61342;51.442;7.370;2022-12-04T06:37:29;17.02;;;11.30;;
71238;SDS011;61342;51.442;7.370;2022-12-04T06:38:36;15.82;;;10.95;;
71238;SDS011;61342;51.442;7.370;2022-12-04T06:39:42;16.88;;;11.35;;
71238;SDS011;61342;51.442;7.370;2022-12-04T06:42:37;15.73;;;10.85;;
71238;SDS011;61342;51.442;7.370;2022-12-04T06:44:05;17.85;;;11.68;;
71238;SDS011;61342;51.442;7.370;2022-12-04T06:45:06;16.93;;;11.57;;
71238;SDS011;61342;51.442;7.370;2022-12-04T06:46:27;18.33;;;12.25;;
71238;SDS011;61342;51.442;7.370;2022-12-04T06:48:27;17.33;;;11.30;;
71238;SDS011;61342;51.442;7.370;2022-12-04T06:49:54;16.92;;;11.80;;
71238;SDS011;61342;51.442;7.370;2022-12-04T06:53:08;17.33;;;11.13;;
71238;SDS011;61342;51.442;7.370;2022-12-04T06:56:30;15.73;;;10.90;;
71238;SDS011;61342;51.442;7.370;2022-12-04T06:59:55;19.63;;;11.60;;
71238;SDS011;61342;51.442;7.370;2022-12-04T07:01:22;17.17;;;11.50;;
71238;SDS011;61342;51.442;7.370;2022-12-04T07:03:00;16.83;;;10.85;;
71238;SDS011;61342;51.442;7.370;2022-12-04T07:04:12;15.10;;;10.73;;
71238;SDS011;61342;51.442;7.370;2022-12-04T07:06:45;14.55;;;10.52;;
71238;SDS011;61342;51.442;7.370;2022-12-04T07:09:24;15.15;;;10.55;;
71238;SDS011;61342;51.442;7.370;2022-12-04T07:10:28;14.98;;;10.95;;
71238;SDS011;61342;51.442;7.370;2022-12-04T07:11:34;17.13;;;12.07;;
71238;SDS011;61342;51.442;7.370;2022-12-04T07:12:39;17.50;;;11.10;;
71238;SDS011;61342;51.442;7.370;2022-12-04T07:13:40;17.50;;;12.37;;
71238;SDS011;61342;51.442;7.370;2022-12-04T07:14:49;16.60;;;11.70;;
71238;SDS011;61342;51.442;7.370;2022-12-04T07:17:32;18.33;;;11.68;;
71238;SDS011;61342;51.442;7.370;2022-12-04T07:18:32;15.77;;;11.38;;
71238;SDS011;61342;51.442;7.370;2022-12-04T07:19:33;16.30;;;11.60;;
71238;SDS011;61342;51.442;7.370;2022-12-04T07:20:34;17.70;;;12.37;;
71238;SDS011;61342;51.442;7.370;2022-12-04T07:21:38;16.45;;;12.15;;
71238;SDS011;61342;51.442;7.370;2022-12-04T07:22:39;17.93;;;12.13;;
71238;SDS011;61342;51.442;7.370;2022-12-04T07:23:39;18.03;;;12.20;;
71238;SDS011;61342;51.442;7.370;2022-12-04T07:24:42;15.70;;;11.43;;
71238;SDS011;61342;51.442;7.370;2022-12-04T07:25:43;16.70;;;11.18;;
71238;SDS011;61342;51.442;7.370;2022-12-04T07:26:43;16.00;;;11.70;;
71238;SDS011;61342;51.442;7.370;2022-12-04T07:27:44;17.23;;;11.57;;
71238;SDS011;61342;51.442;7.370;2022-12-04T07:28:45;16.00;;;11.30;;
71238;SDS011;61342;51.442;7.370;2022-12-04T07:29:45;13.63;;;10.57;;
71238;SDS011;61342;51.442;7.370;2022-12-04T07:30:46;15.90;;;11.20;;
71238;SDS011;61342;51.442;7.370;2022-12-04T07:31:47;15.93;;;11.80;;
71238;SDS011;61342;51.442;7.370;2022-12-04T07:32:48;18.23;;;12.37;;
71238;SDS011;61342;51.442;7.370;2022-12-04T07:33:48;18.37;;;11.57;;
71238;SDS011;61342;51.442;7.370;2022-12-04T07:34:49;16.83;;;11.68;;
71238;SDS011;61342;51.442;7.370;2022-12-04T07:35:53;17.93;;;12.17;;
71238;SDS011;61342;51.442;7.370;2022-12-04T07:36:55;16.85;;;12.02;;
71238;SDS011;61342;51.442;7.370;2022-12-04T07:37:55;15.23;;;10.90;;
71238;SDS011;61342;51.442;7.370;2022-12-04T07:38:56;16.20;;;11.73;;
71238;SDS011;61342;51.442;7.370;2022-12-04T07:39:57;16.97;;;11.43;;
71238;SDS011;61342;51.442;7.370;2022-12-04T07:40:57;18.33;;;12.57;;
71238;SDS011;61342;51.442;7.370;2022-12-04T07:41:58;18.48;;;11.65;;
71238;SDS011;61342;51.442;7.370;2022-12-04T07:42:59;17.93;;;12.33;;
71238;SDS011;61342;51.442;7.370;2022-12-04T07:43:59;15.17;;;11.67;;
71238;SDS011;61342;51.442;7.370;2022-12-04T07:45:00;18.17;;;12.43;;
71238;SDS011;61342;51.442;7.370;2022-12-04T07:46:04;16.63;;;11.17;;
71238;SDS011;61342;51.442;7.370;2022-12-04T07:47:06;16.55;;;12.10;;
71238;SDS011;61342;51.442;7.370;2022-12-04T07:48:07;17.33;;;12.93;;
71238;SDS011;61342;51.442;7.370;2022-12-04T07:49:09;16.87;;;11.60;;
71238;SDS011;61342;51.442;7.370;2022-12-04T07:50:10;17.85;;;12.07;;
71238;SDS011;61342;51.442;7.370;2022-12-04T07:51:21;17.83;;;11.93;;
71238;SDS011;61342;51.442;7.370;2022-12-04T07:52:22;16.88;;;12.00;;
71238;SDS011;61342;51.442;7.370;2022-12-04T07:53:23;18.10;;;12.10;;
71238;SDS011;61342;51.442;7.370;2022-12-04T07:54:23;17.20;;;11.83;;
71238;SDS011;61342;51.442;7.370;2022-12-04T07:55:23;16.60;;;12.20;;
71238;SDS011;61342;51.442;7.370;2022-12-04T07:56:24;18.27;;;11.30;;
71238;SDS011;61342;51.442;7.370;2022-12-04T07:57:24;15.97;;;11.97;;
71238;SDS011;61342;51.442;7.370;2022-12-04T07:58:26;19.25;;;13.43;;
71238;SDS011;61342;51.442;7.370;2022-12-04T07:59:26;18.67;;;12.43;;
71238;SDS011;61342;51.442;7.370;2022-12-04T08:00:27;16.87;;;11.90;;
71238;SDS011;61342;51.442;7.370;2022-12-04T08:01:27;16.77;;;12.33;;
71238;SDS011;61342;51.442;7.370;2022-12-04T08:02:27;19.63;;;13.63;;
71238;SDS011;61342;51.442;7.370;2022-12-04T08:03:28;19.43;;;12.60;;
71238;SDS011;61342;51.442;7.370;2022-12-04T08:04:28;19.27;;;12.33;;
71238;SDS011;61342;51.442;7.370;2022-12-04T08:05:30;19.57;;;12.83;;
71238;SDS011;61342;51.442;7.370;2022-12-04T08:06:31;17.98;;;12.95;;
71238;SDS011;61342;51.442;7.370;2022-12-04T08:07:32;16.60;;;12.15;;
71238;SDS011;61342;51.442;7.370;2022-12-04T08:08:33;18.37;;;12.70;;
71238;SDS011;61342;51.442;7.370;2022-12-04T08:09:34;18.00;;;12.70;;
71238;SDS011;61342;51.442;7.370;2022-12-04T08:10:35;16.63;;;11.50;;
71238;SDS011;61342;51.442;7.370;2022-12-04T08:11:35;19.20;;;12.73;;
71238;SDS011;61342;51.442;7.370;2022-12-04T08:12:35;18.07;;;12.17;;
71238;SDS011;61342;51.442;7.370;2022-12-04T08:13:36;18.17;;;11.90;;
71238;SDS011;61342;51.442;7.370;2022-12-04T08:14:36;19.27;;;12.87;;
71238;SDS011;61342;51.442;7.370;2022-12-04T08:15:37;18.97;;;11.97;;
71238;SDS011;61342;51.442;7.370;2022-12-04T08:16:37;19.73;;;12.90;;
71238;SDS011;61342;51.442;7.370;2022-12-04T08:17:37;17.50;;;12.87;;
71238;SDS011;61342;51.442;7.370;2022-12-04T08:18:38;19.20;;;12.80;;
71238;SDS011;61342;51.442;7.370;2022-12-04T08:19:39;17.27;;;11.95;;
71238;SDS011;61342;51.442;7.370;2022-12-04T08:20:42;18.08;;;12.77;;
71238;SDS011;61342;51.442;7.370;2022-12-04T08:21:43;17.38;;;12.20;;
71238;SDS011;61342;51.442;7.370;2022-12-04T08:22:43;19.47;;;12.50;;
71238;SDS011;61342;51.442;7.370;2022-12-04T08:23:44;17.27;;;12.47;;
71238;SDS011;61342;51.442;7.370;2022-12-04T08:24:44;18.83;;;13.37;;
71238;SDS011;61342;51.442;7.370;2022-12-04T08:25:44;17.37;;;12.53;;
71238;SDS011;61342;51.442;7.370;2022-12-04T08:26:45;18.33;;;12.67;;
71238;SDS011;61342;51.442;7.370;2022-12-04T08:27:45;17.43;;;12.23;;
71238;SDS011;61342;51.442;7.370;2022-12-04T08:28:46;17.85;;;12.55;;
71238;SDS011;61342;51.442;7.370;2022-12-04T08:29:47;17.23;;;12.50;;
71238;SDS011;61342;51.442;7.370;2022-12-04T08:30:47;15.83;;;12.47;;
71238;SDS011;61342;51.442;7.370;2022-12-04T08:31:48;18.07;;;12.37;;
71238;SDS011;61342;51.442;7.370;2022-12-04T08:32:48;18.80;;;12.23;;
71238;SDS011;61342;51.442;7.370;2022-12-04T08:33:49;18.30;;;12.73;;
71238;SDS011;61342;51.442;7.370;2022-12-04T08:34:51;17.90;;;12.55;;
71238;SDS011;61342;51.442;7.370;2022-12-04T08:35:51;19.23;;;12.93;;
71238;SDS011;61342;51.442;7.370;2022-12-04T08:36:52;20.67;;;13.27;;
71238;SDS011;61342;51.442;7.370;2022-12-04T08:37:52;19.47;;;13.00;;
71238;SDS011;61342;51.442;7.370;2022-12-04T08:38:53;20.17;;;13.10;;
71238;SDS011;61342;51.442;7.370;2022-12-04T08:39:54;17.98;;;12.13;;
71238;SDS011;61342;51.442;7.370;2022-12-04T08:40:57;16.03;;;12.43;;
71238;SDS011;61342;51.442;7.370;2022-12-04T08:42:01;19.33;;;12.85;;
71238;SDS011;61342;51.442;7.370;2022-12-04T08:43:01;18.37;;;12.50;;
71238;SDS011;61342;51.442;7.370;2022-12-04T08:44:01;18.93;;;13.33;;
71238;SDS011;61342;51.442;7.370;2022-12-04T08:45:02;17.40;;;12.20;;
71238;SDS011;61342;51.442;7.370;2022-12-04T08:46:06;18.60;;;12.90;;
71238;SDS011;61342;51.442;7.370;2022-12-04T08:47:09;18.60;;;12.95;;
71238;SDS011;61342;51.442;7.370;2022-12-04T08:48:09;18.23;;;12.83;;
71238;SDS011;61342;51.442;7.370;2022-12-04T08:49:10;19.97;;;13.23;;
71238;SDS011;61342;51.442;7.370;2022-12-04T08:50:10;18.90;;;13.23;;
71238;SDS011;61342;51.442;7.370;2022-12-04T08:51:14;22.20;;;13.37;;
71238;SDS011;61342;51.442;7.370;2022-12-04T08:52:20;18.25;;;12.75;;
71238;SDS011;61342;51.442;7.370;2022-12-04T08:53:20;19.20;;;13.30;;
71238;SDS011;61342;51.442;7.370;2022-12-04T08:54:21;17.27;;;12.20;;
71238;SDS011;61342;51.442;7.370;2022-12-04T08:55:22;17.37;;;12.40;;
71238;SDS011;61342;51.442;7.370;2022-12-04T08:56:22;20.17;;;13.30;;
71238;SDS011;61342;51.442;7.370;2022-12-04T08:57:24;19.15;;;12.82;;
71238;SDS011;61342;51.442;7.370;2022-12-04T08:58:24;18.00;;;12.93;;
71238;SDS011;61342;51.442;7.370;2022-12-04T08:59:25;20.47;;;12.70;;
71238;SDS011;61342;51.442;7.370;2022-12-04T09:00:26;21.07;;;13.70;;
71238;SDS011;61342;51.442;7.370;2022-12-04T09:02:53;17.75;;;11.98;;
71238;SDS011;61342;51.442;7.370;2022-12-04T09:03:53;21.03;;;13.43;;
71238;SDS011;61342;51.442;7.370;2022-12-04T09:04:54;19.33;;;13.13;;
71238;SDS011;61342;51.442;7.370;2022-12-04T09:05:57;19.17;;;13.33;;
71238;SDS011;61342;51.442;7.370;2022-12-04T09:06:58;19.70;;;13.60;;
71238;SDS011;61342;51.442;7.370;2022-12-04T09:07:59;17.40;;;12.37;;
71238;SDS011;61342;51.442;7.370;2022-12-04T09:08:59;18.10;;;12.83;;
71238;SDS011;61342;51.442;7.370;2022-12-04T09:10:00;19.07;;;12.87;;
71238;SDS011;61342;51.442;7.370;2022-12-04T09:11:01;19.40;;;13.60;;
71238;SDS011;61342;51.442;7.370;2022-12-04T09:12:09;19.52;;;13.00;;
71238;SDS011;61342;51.442;7.370;2022-12-04T09:13:10;18.80;;;13.20;;
71238;SDS011;61342;51.442;7.370;2022-12-04T09:14:10;18.10;;;12.93;;
71238;SDS011;61342;51.442;7.370;2022-12-04T09:15:11;19.63;;;13.30;;
71238;SDS011;61342;51.442;7.370;2022-12-04T09:16:18;22.13;;;13.10;;
71238;SDS011;61342;51.442;7.370;2022-12-04T09:17:26;21.10;;;13.95;;
71238;SDS011;61342;51.442;7.370;2022-12-04T09:18:26;21.92;;;14.30;;
71238;SDS011;61342;51.442;7.370;2022-12-04T09:19:27;20.37;;;13.73;;
71238;SDS011;61342;51.442;7.370;2022-12-04T09:20:27;19.80;;;13.40;;
71238;SDS011;61342;51.442;7.370;2022-12-04T09:21:31;20.30;;;13.43;;
71238;SDS011;61342;51.442;7.370;2022-12-04T09:22:32;20.10;;;13.07;;
71238;SDS011;61342;51.442;7.370;2022-12-04T09:23:38;19.23;;;12.50;;
71238;SDS011;61342;51.442;7.370;2022-12-04T09:24:38;19.05;;;13.43;;
71238;SDS011;61342;51.442;7.370;2022-12-04T09:25:39;20.77;;;13.67;;
71238;SDS011;61342;51.442;7.370;2022-12-04T09:26:39;18.20;;;12.87;;
71238;SDS011;61342;51.442;7.370;2022-12-04T09:27:40;19.83;;;12.63;;
71238;SDS011;61342;51.442;7.370;2022-12-04T09:28:44;19.77;;;13.02;;
71238;SDS011;61342;51.442;7.370;2022-12-04T09:29:48;20.67;;;13.68;;
71238;SDS011;61342;51.442;7.370;2022-12-04T09:30:58;18.77;;;12.25;;
71238;SDS011;61342;51.442;7.370;2022-12-04T09:32:07;19.27;;;13.05;;
71238;SDS011;61342;51.442;7.370;2022-12-04T09:33:07;17.93;;;12.50;;
71238;SDS011;61342;51.442;7.370;2022-12-04T09:34:08;18.87;;;13.10;;
71238;SDS011;61342;51.442;7.370;2022-12-04T09:35:08;21.23;;;13.23;;
71238;SDS011;61342;51.442;7.370;2022-12-04T09:36:09;16.05;;;11.88;;
71238;SDS011;61342;51.442;7.370;2022-12-04T09:37:15;18.48;;;12.98;;
71238;SDS011;61342;51.442;7.370;2022-12-04T09:38:17;18.90;;;13.00;;
71238;SDS011;61342;51.442;7.370;2022-12-04T09:39:17;19.73;;;13.30;;